sensor_id;sensor_type;location;lat;lon;timestamp;P1;durP1;ratioP1;P2;durP2;ratioP2
51384;SDS011;37478;55.682;37.462;2022-08-01T00:00:06;6.88;;;4.07;;
51384;SDS011;37478;55.682;37.462;2022-08-01T00:02:32;6.20;;;3.95;;
51384;SDS011;37478;55.682;37.462;2022-08-01T00:04:58;7.28;;;3.58;;
51384;SDS011;37478;55.682;37.462;2022-08-01T00:07:23;10.07;;;4.55;;
51384;SDS011;37478;55.682;37.462;2022-08-01T00:09:48;15.70;;;4.13;;
51384;SDS011;37478;55.682;37.462;2022-08-01T00:12:14;7.30;;;3.85;;
51384;SDS011;37478;55.682;37.462;2022-08-01T00:14:39;8.88;;;3.70;;
51384;SDS011;37478;55.682;37.462;2022-08-01T00:17:04;6.80;;;3.63;;
51384;SDS011;37478;55.682;37.462;2022-08-01T00:19:30;4.95;;;3.65;;
51384;SDS011;37478;55.682;37.462;2022-08-01T00:21:55;6.75;;;3.80;;
51384;SDS011;37478;55.682;37.462;2022-08-01T00:24:21;8.15;;;3.78;;
51384;SDS011;37478;55.682;37.462;2022-08-01T00:26:46;6.93;;;3.55;;
51384;SDS011;37478;55.682;37.462;2022-08-01T00:29:11;6.30;;;4.00;;
51384;SDS011;37478;55.682;37.462;2022-08-01T00:31:37;9.80;;;4.07;;
51384;SDS011;37478;55.682;37.462;2022-08-01T00:34:02;9.18;;;4.18;;
51384;SDS011;37478;55.682;37.462;2022-08-01T00:36:27;7.50;;;3.53;;
51384;SDS011;37478;55.682;37.462;2022-08-01T00:38:53;3.60;;;3.05;;
51384;SDS011;37478;55.682;37.462;2022-08-01T00:41:21;6.00;;;3.92;;
51384;SDS011;37478;55.682;37.462;2022-08-01T00:43:46;10.13;;;3.92;;
51384;SDS011;37478;55.682;37.462;2022-08-01T00:46:12;4.65;;;3.60;;
51384;SDS011;37478;55.682;37.462;2022-08-01T00:48:37;7.18;;;4.00;;
51384;SDS011;37478;55.682;37.462;2022-08-01T00:51:03;7.57;;;3.80;;
51384;SDS011;37478;55.682;37.462;2022-08-01T00:53:29;7.22;;;3.88;;
51384;SDS011;37478;55.682;37.462;2022-08-01T00:55:55;6.43;;;3.53;;
51384;SDS011;37478;55.682;37.462;2022-08-01T00:58:21;7.72;;;4.25;;
51384;SDS011;37478;55.682;37.462;2022-08-01T01:00:48;7.50;;;3.75;;
51384;SDS011;37478;55.682;37.462;2022-08-01T01:03:14;9.95;;;4.35;;
51384;SDS011;37478;55.682;37.462;2022-08-01T01:05:50;11.50;;;4.82;;
51384;SDS011;37478;55.682;37.462;2022-08-01T01:08:22;7.28;;;4.10;;
51384;SDS011;37478;55.682;37.462;2022-08-01T01:10:54;7.60;;;4.07;;
51384;SDS011;37478;55.682;37.462;2022-08-01T01:15:58;7.05;;;4.10;;
51384;SDS011;37478;55.682;37.462;2022-08-01T01:18:24;4.93;;;3.33;;
51384;SDS011;37478;55.682;37.462;2022-08-01T01:28:34;7.90;;;4.70;;
51384;SDS011;37478;55.682;37.462;2022-08-01T01:31:00;14.32;;;4.35;;
51384;SDS011;37478;55.682;37.462;2022-08-01T01:33:27;10.27;;;4.15;;
51384;SDS011;37478;55.682;37.462;2022-08-01T01:35:57;10.43;;;4.72;;
51384;SDS011;37478;55.682;37.462;2022-08-01T01:38:25;7.70;;;3.80;;
51384;SDS011;37478;55.682;37.462;2022-08-01T01:40:51;6.60;;;3.65;;
51384;SDS011;37478;55.682;37.462;2022-08-01T01:43:17;12.45;;;4.00;;
51384;SDS011;37478;55.682;37.462;2022-08-01T01:45:44;9.65;;;4.20;;
51384;SDS011;37478;55.682;37.462;2022-08-01T01:48:10;8.80;;;4.18;;
51384;SDS011;37478;55.682;37.462;2022-08-01T01:50:37;7.45;;;4.43;;
51384;SDS011;37478;55.682;37.462;2022-08-01T01:53:03;9.23;;;4.50;;
51384;SDS011;37478;55.682;37.462;2022-08-01T01:55:29;9.57;;;4.68;;
51384;SDS011;37478;55.682;37.462;2022-08-01T01:57:55;8.20;;;4.47;;
51384;SDS011;37478;55.682;37.462;2022-08-01T02:00:20;7.85;;;4.38;;
51384;SDS011;37478;55.682;37.462;2022-08-01T02:02:46;9.82;;;4.57;;
51384;SDS011;37478;55.682;37.462;2022-08-01T02:05:12;7.28;;;4.30;;
51384;SDS011;37478;55.682;37.462;2022-08-01T02:07:38;8.55;;;4.40;;
51384;SDS011;37478;55.682;37.462;2022-08-01T02:10:04;10.18;;;4.60;;
51384;SDS011;37478;55.682;37.462;2022-08-01T02:12:31;7.95;;;4.45;;
51384;SDS011;37478;55.682;37.462;2022-08-01T02:14:57;12.38;;;4.40;;
51384;SDS011;37478;55.682;37.462;2022-08-01T02:17:23;10.07;;;4.82;;
51384;SDS011;37478;55.682;37.462;2022-08-01T02:19:49;9.63;;;4.28;;
51384;SDS011;37478;55.682;37.462;2022-08-01T02:22:29;9.88;;;4.32;;
51384;SDS011;37478;55.682;37.462;2022-08-01T02:27:24;10.75;;;5.00;;
51384;SDS011;37478;55.682;37.462;2022-08-01T02:30:01;15.43;;;6.03;;
51384;SDS011;37478;55.682;37.462;2022-08-01T02:32:28;7.88;;;3.90;;
51384;SDS011;37478;55.682;37.462;2022-08-01T02:34:55;9.77;;;4.30;;
51384;SDS011;37478;55.682;37.462;2022-08-01T02:37:22;6.80;;;4.50;;
51384;SDS011;37478;55.682;37.462;2022-08-01T02:39:49;11.77;;;4.03;;
51384;SDS011;37478;55.682;37.462;2022-08-01T02:42:15;5.88;;;4.28;;
51384;SDS011;37478;55.682;37.462;2022-08-01T02:44:43;8.68;;;4.32;;
51384;SDS011;37478;55.682;37.462;2022-08-01T02:47:09;10.15;;;4.78;;
51384;SDS011;37478;55.682;37.462;2022-08-01T02:49:36;9.52;;;4.43;;
51384;SDS011;37478;55.682;37.462;2022-08-01T02:52:04;9.82;;;5.13;;
51384;SDS011;37478;55.682;37.462;2022-08-01T02:54:30;9.70;;;4.90;;
51384;SDS011;37478;55.682;37.462;2022-08-01T02:56:56;10.13;;;4.75;;
51384;SDS011;37478;55.682;37.462;2022-08-01T02:59:22;9.77;;;5.15;;
51384;SDS011;37478;55.682;37.462;2022-08-01T03:01:50;12.90;;;5.22;;
51384;SDS011;37478;55.682;37.462;2022-08-01T03:04:16;11.30;;;4.53;;
51384;SDS011;37478;55.682;37.462;2022-08-01T03:06:43;12.63;;;5.15;;
51384;SDS011;37478;55.682;37.462;2022-08-01T03:09:09;7.30;;;4.75;;
51384;SDS011;37478;55.682;37.462;2022-08-01T03:11:34;9.50;;;5.00;;
51384;SDS011;37478;55.682;37.462;2022-08-01T03:14:02;10.45;;;5.05;;
51384;SDS011;37478;55.682;37.462;2022-08-01T03:16:30;15.23;;;4.97;;
51384;SDS011;37478;55.682;37.462;2022-08-01T03:18:56;13.38;;;5.07;;
51384;SDS011;37478;55.682;37.462;2022-08-01T03:21:22;8.10;;;4.72;;
51384;SDS011;37478;55.682;37.462;2022-08-01T03:23:49;8.02;;;4.97;;
51384;SDS011;37478;55.682;37.462;2022-08-01T03:26:15;10.35;;;4.50;;
51384;SDS011;37478;55.682;37.462;2022-08-01T03:28:40;7.95;;;4.75;;
51384;SDS011;37478;55.682;37.462;2022-08-01T03:31:06;8.40;;;4.75;;
51384;SDS011;37478;55.682;37.462;2022-08-01T03:33:32;8.40;;;4.85;;
51384;SDS011;37478;55.682;37.462;2022-08-01T03:35:57;7.28;;;4.90;;
51384;SDS011;37478;55.682;37.462;2022-08-01T03:38:25;12.57;;;5.13;;
51384;SDS011;37478;55.682;37.462;2022-08-01T03:43:20;7.95;;;5.13;;
51384;SDS011;37478;55.682;37.462;2022-08-01T03:45:49;8.32;;;4.63;;
51384;SDS011;37478;55.682;37.462;2022-08-01T03:48:16;11.30;;;5.25;;
51384;SDS011;37478;55.682;37.462;2022-08-01T03:50:42;8.35;;;5.20;;
51384;SDS011;37478;55.682;37.462;2022-08-01T03:53:08;10.75;;;5.35;;
51384;SDS011;37478;55.682;37.462;2022-08-01T03:55:35;7.05;;;4.93;;
51384;SDS011;37478;55.682;37.462;2022-08-01T03:58:03;7.47;;;4.75;;
51384;SDS011;37478;55.682;37.462;2022-08-01T04:00:30;7.57;;;4.38;;
51384;SDS011;37478;55.682;37.462;2022-08-01T04:02:55;6.50;;;4.60;;
51384;SDS011;37478;55.682;37.462;2022-08-01T04:05:21;7.95;;;4.50;;
51384;SDS011;37478;55.682;37.462;2022-08-01T04:07:47;6.18;;;4.03;;
51384;SDS011;37478;55.682;37.462;2022-08-01T04:10:15;5.95;;;4.40;;
51384;SDS011;37478;55.682;37.462;2022-08-01T04:12:41;7.60;;;4.85;;
51384;SDS011;37478;55.682;37.462;2022-08-01T04:15:08;7.43;;;4.70;;
51384;SDS011;37478;55.682;37.462;2022-08-01T04:17:33;7.10;;;4.80;;
51384;SDS011;37478;55.682;37.462;2022-08-01T04:19:58;11.45;;;4.70;;
51384;SDS011;37478;55.682;37.462;2022-08-01T04:22:24;7.22;;;4.53;;
51384;SDS011;37478;55.682;37.462;2022-08-01T04:24:51;8.70;;;4.00;;
51384;SDS011;37478;55.682;37.462;2022-08-01T04:27:32;9.82;;;4.03;;
51384;SDS011;37478;55.682;37.462;2022-08-01T04:30:00;6.32;;;4.38;;
51384;SDS011;37478;55.682;37.462;2022-08-01T04:32:27;10.98;;;4.75;;
51384;SDS011;37478;55.682;37.462;2022-08-01T04:34:55;9.55;;;4.50;;
51384;SDS011;37478;55.682;37.462;2022-08-01T04:37:22;7.00;;;4.43;;
51384;SDS011;37478;55.682;37.462;2022-08-01T04:39:48;6.70;;;4.10;;
51384;SDS011;37478;55.682;37.462;2022-08-01T04:42:13;6.18;;;4.40;;
51384;SDS011;37478;55.682;37.462;2022-08-01T04:44:40;9.55;;;4.95;;
51384;SDS011;37478;55.682;37.462;2022-08-01T04:47:06;8.55;;;4.63;;
51384;SDS011;37478;55.682;37.462;2022-08-01T04:49:33;8.55;;;3.95;;
51384;SDS011;37478;55.682;37.462;2022-08-01T04:51:58;8.63;;;4.18;;
51384;SDS011;37478;55.682;37.462;2022-08-01T04:54:28;6.13;;;3.63;;
51384;SDS011;37478;55.682;37.462;2022-08-01T04:56:54;6.28;;;4.25;;
51384;SDS011;37478;55.682;37.462;2022-08-01T04:59:34;7.97;;;3.50;;
51384;SDS011;37478;55.682;37.462;2022-08-01T05:04:37;5.03;;;3.80;;
51384;SDS011;37478;55.682;37.462;2022-08-01T05:07:03;4.05;;;3.38;;
51384;SDS011;37478;55.682;37.462;2022-08-01T05:09:29;4.30;;;3.30;;
51384;SDS011;37478;55.682;37.462;2022-08-01T05:11:55;4.70;;;3.38;;
51384;SDS011;37478;55.682;37.462;2022-08-01T05:14:23;5.00;;;3.78;;
51384;SDS011;37478;55.682;37.462;2022-08-01T05:16:48;6.25;;;3.13;;
51384;SDS011;37478;55.682;37.462;2022-08-01T05:19:13;8.90;;;3.88;;
51384;SDS011;37478;55.682;37.462;2022-08-01T05:21:39;5.32;;;3.22;;
51384;SDS011;37478;55.682;37.462;2022-08-01T05:24:04;6.18;;;3.60;;
51384;SDS011;37478;55.682;37.462;2022-08-01T05:26:30;6.30;;;3.03;;
51384;SDS011;37478;55.682;37.462;2022-08-01T05:28:55;8.82;;;3.88;;
51384;SDS011;37478;55.682;37.462;2022-08-01T05:31:20;8.77;;;3.83;;
51384;SDS011;37478;55.682;37.462;2022-08-01T05:33:46;6.03;;;3.50;;
51384;SDS011;37478;55.682;37.462;2022-08-01T05:36:11;6.68;;;3.72;;
51384;SDS011;37478;55.682;37.462;2022-08-01T05:38:36;5.10;;;3.38;;
51384;SDS011;37478;55.682;37.462;2022-08-01T05:41:02;6.95;;;3.90;;
51384;SDS011;37478;55.682;37.462;2022-08-01T05:43:27;5.22;;;3.40;;
51384;SDS011;37478;55.682;37.462;2022-08-01T05:45:52;6.28;;;3.28;;
51384;SDS011;37478;55.682;37.462;2022-08-01T05:48:18;10.82;;;3.80;;
51384;SDS011;37478;55.682;37.462;2022-08-01T05:50:43;4.78;;;3.22;;
51384;SDS011;37478;55.682;37.462;2022-08-01T05:53:08;9.45;;;6.70;;
51384;SDS011;37478;55.682;37.462;2022-08-01T05:55:34;4.43;;;3.28;;
51384;SDS011;37478;55.682;37.462;2022-08-01T05:58:00;3.67;;;2.92;;
51384;SDS011;37478;55.682;37.462;2022-08-01T06:00:25;6.43;;;3.35;;
51384;SDS011;37478;55.682;37.462;2022-08-01T06:02:50;3.47;;;2.80;;
51384;SDS011;37478;55.682;37.462;2022-08-01T06:05:16;7.65;;;2.88;;
51384;SDS011;37478;55.682;37.462;2022-08-01T06:07:41;6.72;;;2.60;;
51384;SDS011;37478;55.682;37.462;2022-08-01T06:10:08;5.82;;;3.22;;
51384;SDS011;37478;55.682;37.462;2022-08-01T06:12:34;3.55;;;2.53;;
51384;SDS011;37478;55.682;37.462;2022-08-01T06:14:59;4.47;;;2.65;;
51384;SDS011;37478;55.682;37.462;2022-08-01T06:17:25;3.72;;;2.35;;
51384;SDS011;37478;55.682;37.462;2022-08-01T06:19:50;2.58;;;2.28;;
51384;SDS011;37478;55.682;37.462;2022-08-01T06:22:15;5.30;;;2.78;;
51384;SDS011;37478;55.682;37.462;2022-08-01T06:24:41;4.40;;;3.30;;
51384;SDS011;37478;55.682;37.462;2022-08-01T06:27:06;4.65;;;3.13;;
51384;SDS011;37478;55.682;37.462;2022-08-01T06:29:31;5.70;;;3.33;;
51384;SDS011;37478;55.682;37.462;2022-08-01T06:31:57;11.68;;;4.18;;
51384;SDS011;37478;55.682;37.462;2022-08-01T06:34:22;6.00;;;3.53;;
51384;SDS011;37478;55.682;37.462;2022-08-01T06:36:48;9.43;;;3.70;;
51384;SDS011;37478;55.682;37.462;2022-08-01T06:39:13;5.13;;;3.13;;
51384;SDS011;37478;55.682;37.462;2022-08-01T06:41:39;4.72;;;3.45;;
51384;SDS011;37478;55.682;37.462;2022-08-01T06:44:06;12.18;;;3.47;;
51384;SDS011;37478;55.682;37.462;2022-08-01T06:46:31;6.47;;;3.75;;
51384;SDS011;37478;55.682;37.462;2022-08-01T06:48:57;4.88;;;3.40;;
51384;SDS011;37478;55.682;37.462;2022-08-01T06:51:22;10.13;;;3.85;;
51384;SDS011;37478;55.682;37.462;2022-08-01T06:53:47;8.75;;;4.15;;
51384;SDS011;37478;55.682;37.462;2022-08-01T06:56:13;7.80;;;3.85;;
51384;SDS011;37478;55.682;37.462;2022-08-01T06:58:38;9.23;;;6.32;;
51384;SDS011;37478;55.682;37.462;2022-08-01T07:01:04;7.10;;;4.50;;
51384;SDS011;37478;55.682;37.462;2022-08-01T07:03:34;9.52;;;4.38;;
51384;SDS011;37478;55.682;37.462;2022-08-01T07:06:00;10.50;;;4.38;;
51384;SDS011;37478;55.682;37.462;2022-08-01T07:08:25;10.57;;;4.93;;
51384;SDS011;37478;55.682;37.462;2022-08-01T07:10:50;9.05;;;4.72;;
51384;SDS011;37478;55.682;37.462;2022-08-01T07:13:16;8.35;;;4.50;;
51384;SDS011;37478;55.682;37.462;2022-08-01T07:15:45;7.75;;;4.60;;
51384;SDS011;37478;55.682;37.462;2022-08-01T07:18:11;9.95;;;5.25;;
51384;SDS011;37478;55.682;37.462;2022-08-01T07:20:37;9.45;;;4.43;;
51384;SDS011;37478;55.682;37.462;2022-08-01T07:23:02;9.27;;;5.00;;
51384;SDS011;37478;55.682;37.462;2022-08-01T07:25:27;11.32;;;4.75;;
51384;SDS011;37478;55.682;37.462;2022-08-01T07:27:53;9.60;;;5.00;;
51384;SDS011;37478;55.682;37.462;2022-08-01T07:30:18;9.20;;;4.57;;
51384;SDS011;37478;55.682;37.462;2022-08-01T07:32:43;8.75;;;4.82;;
51384;SDS011;37478;55.682;37.462;2022-08-01T07:35:09;6.47;;;4.55;;
51384;SDS011;37478;55.682;37.462;2022-08-01T07:37:34;10.15;;;4.07;;
51384;SDS011;37478;55.682;37.462;2022-08-01T07:39:59;11.93;;;4.22;;
51384;SDS011;37478;55.682;37.462;2022-08-01T07:42:25;7.40;;;4.07;;
51384;SDS011;37478;55.682;37.462;2022-08-01T07:44:50;7.13;;;3.90;;
51384;SDS011;37478;55.682;37.462;2022-08-01T07:47:15;6.88;;;3.72;;
51384;SDS011;37478;55.682;37.462;2022-08-01T07:49:41;9.98;;;4.43;;
51384;SDS011;37478;55.682;37.462;2022-08-01T07:52:06;5.38;;;4.10;;
51384;SDS011;37478;55.682;37.462;2022-08-01T07:54:32;5.15;;;3.45;;
51384;SDS011;37478;55.682;37.462;2022-08-01T07:56:58;9.23;;;3.88;;
51384;SDS011;37478;55.682;37.462;2022-08-01T07:59:26;5.85;;;3.60;;
51384;SDS011;37478;55.682;37.462;2022-08-01T08:01:51;10.13;;;3.88;;
51384;SDS011;37478;55.682;37.462;2022-08-01T08:04:17;7.28;;;3.58;;
51384;SDS011;37478;55.682;37.462;2022-08-01T08:06:42;8.25;;;3.55;;
51384;SDS011;37478;55.682;37.462;2022-08-01T08:09:09;10.70;;;3.70;;
51384;SDS011;37478;55.682;37.462;2022-08-01T08:11:34;4.25;;;3.28;;
51384;SDS011;37478;55.682;37.462;2022-08-01T08:14:00;8.40;;;3.25;;
51384;SDS011;37478;55.682;37.462;2022-08-01T08:16:25;11.13;;;3.15;;
51384;SDS011;37478;55.682;37.462;2022-08-01T08:18:51;7.30;;;3.40;;
51384;SDS011;37478;55.682;37.462;2022-08-01T08:21:16;6.57;;;3.55;;
51384;SDS011;37478;55.682;37.462;2022-08-01T08:23:42;4.38;;;2.97;;
51384;SDS011;37478;55.682;37.462;2022-08-01T08:26:26;10.35;;;3.90;;
51384;SDS011;37478;55.682;37.462;2022-08-01T08:28:51;6.32;;;3.30;;
51384;SDS011;37478;55.682;37.462;2022-08-01T08:31:17;7.68;;;3.58;;
51384;SDS011;37478;55.682;37.462;2022-08-01T08:33:42;5.15;;;3.30;;
51384;SDS011;37478;55.682;37.462;2022-08-01T08:36:07;6.55;;;3.47;;
51384;SDS011;37478;55.682;37.462;2022-08-01T08:38:33;6.25;;;3.40;;
51384;SDS011;37478;55.682;37.462;2022-08-01T08:40:59;5.40;;;3.17;;
51384;SDS011;37478;55.682;37.462;2022-08-01T08:43:24;5.68;;;3.25;;
51384;SDS011;37478;55.682;37.462;2022-08-01T08:45:50;7.25;;;3.40;;
51384;SDS011;37478;55.682;37.462;2022-08-01T08:48:16;12.43;;;3.30;;
51384;SDS011;37478;55.682;37.462;2022-08-01T08:50:42;4.25;;;3.38;;
51384;SDS011;37478;55.682;37.462;2022-08-01T08:53:09;6.72;;;3.08;;
51384;SDS011;37478;55.682;37.462;2022-08-01T08:55:34;5.22;;;3.05;;
51384;SDS011;37478;55.682;37.462;2022-08-01T08:58:00;4.88;;;3.00;;
51384;SDS011;37478;55.682;37.462;2022-08-01T09:00:27;5.07;;;3.33;;
51384;SDS011;37478;55.682;37.462;2022-08-01T09:02:52;4.95;;;2.65;;
51384;SDS011;37478;55.682;37.462;2022-08-01T09:05:21;6.53;;;2.95;;
51384;SDS011;37478;55.682;37.462;2022-08-01T09:07:50;4.20;;;2.63;;
51384;SDS011;37478;55.682;37.462;2022-08-01T09:10:15;3.38;;;2.38;;
51384;SDS011;37478;55.682;37.462;2022-08-01T09:12:59;4.50;;;2.78;;
51384;SDS011;37478;55.682;37.462;2022-08-01T09:15:45;4.30;;;2.63;;
51384;SDS011;37478;55.682;37.462;2022-08-01T09:23:34;3.72;;;2.60;;
51384;SDS011;37478;55.682;37.462;2022-08-01T09:26:00;5.80;;;2.85;;
51384;SDS011;37478;55.682;37.462;2022-08-01T09:28:28;4.13;;;2.33;;
51384;SDS011;37478;55.682;37.462;2022-08-01T09:30:55;4.30;;;2.28;;
51384;SDS011;37478;55.682;37.462;2022-08-01T09:33:20;3.88;;;2.72;;
51384;SDS011;37478;55.682;37.462;2022-08-01T09:35:46;4.55;;;2.90;;
51384;SDS011;37478;55.682;37.462;2022-08-01T09:40:50;7.38;;;3.15;;
51384;SDS011;37478;55.682;37.462;2022-08-01T09:43:16;6.93;;;2.92;;
51384;SDS011;37478;55.682;37.462;2022-08-01T09:45:42;4.50;;;2.72;;
51384;SDS011;37478;55.682;37.462;2022-08-01T09:48:08;5.53;;;2.95;;
51384;SDS011;37478;55.682;37.462;2022-08-01T09:50:40;5.28;;;3.15;;
51384;SDS011;37478;55.682;37.462;2022-08-01T09:53:06;6.13;;;4.60;;
51384;SDS011;37478;55.682;37.462;2022-08-01T09:55:31;4.13;;;2.85;;
51384;SDS011;37478;55.682;37.462;2022-08-01T09:57:57;4.70;;;2.92;;
51384;SDS011;37478;55.682;37.462;2022-08-01T10:00:25;2.72;;;2.50;;
51384;SDS011;37478;55.682;37.462;2022-08-01T10:02:51;4.95;;;2.50;;
51384;SDS011;37478;55.682;37.462;2022-08-01T10:05:16;4.82;;;2.90;;
51384;SDS011;37478;55.682;37.462;2022-08-01T10:08:01;7.03;;;3.15;;
51384;SDS011;37478;55.682;37.462;2022-08-01T10:10:28;5.07;;;2.80;;
51384;SDS011;37478;55.682;37.462;2022-08-01T10:12:53;7.82;;;2.60;;
51384;SDS011;37478;55.682;37.462;2022-08-01T10:15:20;3.90;;;2.67;;
51384;SDS011;37478;55.682;37.462;2022-08-01T10:17:55;6.40;;;3.70;;
51384;SDS011;37478;55.682;37.462;2022-08-01T10:25:11;4.17;;;2.90;;
51384;SDS011;37478;55.682;37.462;2022-08-01T10:27:41;4.45;;;2.72;;
51384;SDS011;37478;55.682;37.462;2022-08-01T10:30:10;4.60;;;2.53;;
51384;SDS011;37478;55.682;37.462;2022-08-01T10:32:36;6.30;;;2.78;;
51384;SDS011;37478;55.682;37.462;2022-08-01T10:35:02;5.93;;;2.90;;
51384;SDS011;37478;55.682;37.462;2022-08-01T10:37:28;4.35;;;2.72;;
51384;SDS011;37478;55.682;37.462;2022-08-01T10:39:53;3.25;;;2.45;;
51384;SDS011;37478;55.682;37.462;2022-08-01T10:42:19;5.45;;;2.63;;
51384;SDS011;37478;55.682;37.462;2022-08-01T10:44:45;3.95;;;2.88;;
51384;SDS011;37478;55.682;37.462;2022-08-01T10:47:17;4.40;;;2.40;;
51384;SDS011;37478;55.682;37.462;2022-08-01T10:49:45;4.85;;;2.90;;
51384;SDS011;37478;55.682;37.462;2022-08-01T10:52:18;5.32;;;2.45;;
51384;SDS011;37478;55.682;37.462;2022-08-01T10:54:44;6.00;;;2.85;;
51384;SDS011;37478;55.682;37.462;2022-08-01T10:57:09;3.33;;;2.47;;
51384;SDS011;37478;55.682;37.462;2022-08-01T10:59:37;4.65;;;3.05;;
51384;SDS011;37478;55.682;37.462;2022-08-01T11:02:12;6.63;;;2.88;;
51384;SDS011;37478;55.682;37.462;2022-08-01T11:07:21;6.78;;;3.15;;
51384;SDS011;37478;55.682;37.462;2022-08-01T11:09:47;4.53;;;2.80;;
51384;SDS011;37478;55.682;37.462;2022-08-01T11:12:14;4.32;;;2.83;;
51384;SDS011;37478;55.682;37.462;2022-08-01T11:20:03;2.70;;;2.25;;
51384;SDS011;37478;55.682;37.462;2022-08-01T11:22:28;5.32;;;3.25;;
51384;SDS011;37478;55.682;37.462;2022-08-01T11:24:54;4.60;;;2.88;;
51384;SDS011;37478;55.682;37.462;2022-08-01T11:27:23;4.63;;;3.05;;
51384;SDS011;37478;55.682;37.462;2022-08-01T11:32:32;3.50;;;2.97;;
51384;SDS011;37478;55.682;37.462;2022-08-01T11:34:57;4.40;;;2.72;;
51384;SDS011;37478;55.682;37.462;2022-08-01T11:37:26;3.35;;;2.85;;
51384;SDS011;37478;55.682;37.462;2022-08-01T11:42:36;5.63;;;2.80;;
51384;SDS011;37478;55.682;37.462;2022-08-01T11:45:02;5.07;;;2.85;;
51384;SDS011;37478;55.682;37.462;2022-08-01T11:47:47;4.40;;;3.20;;
51384;SDS011;37478;55.682;37.462;2022-08-01T11:52:59;4.00;;;3.17;;
51384;SDS011;37478;55.682;37.462;2022-08-01T11:55:26;10.27;;;3.05;;
51384;SDS011;37478;55.682;37.462;2022-08-01T11:57:58;3.65;;;3.00;;
51384;SDS011;37478;55.682;37.462;2022-08-01T12:00:23;5.53;;;3.00;;
51384;SDS011;37478;55.682;37.462;2022-08-01T12:02:56;8.75;;;3.55;;
51384;SDS011;37478;55.682;37.462;2022-08-01T12:05:21;4.75;;;3.00;;
51384;SDS011;37478;55.682;37.462;2022-08-01T12:07:49;5.85;;;3.17;;
51384;SDS011;37478;55.682;37.462;2022-08-01T12:10:15;4.25;;;3.20;;
51384;SDS011;37478;55.682;37.462;2022-08-01T12:12:44;4.35;;;2.90;;
51384;SDS011;37478;55.682;37.462;2022-08-01T12:15:10;4.80;;;3.10;;
51384;SDS011;37478;55.682;37.462;2022-08-01T12:17:43;8.23;;;3.33;;
51384;SDS011;37478;55.682;37.462;2022-08-01T12:20:09;5.13;;;2.97;;
51384;SDS011;37478;55.682;37.462;2022-08-01T12:22:35;11.68;;;2.92;;
51384;SDS011;37478;55.682;37.462;2022-08-01T12:27:32;3.25;;;2.60;;
51384;SDS011;37478;55.682;37.462;2022-08-01T12:29:58;4.38;;;2.60;;
51384;SDS011;37478;55.682;37.462;2022-08-01T12:32:30;3.80;;;3.20;;
51384;SDS011;37478;55.682;37.462;2022-08-01T12:34:57;5.40;;;2.85;;
51384;SDS011;37478;55.682;37.462;2022-08-01T12:37:25;4.57;;;2.92;;
51384;SDS011;37478;55.682;37.462;2022-08-01T12:39:51;4.75;;;3.33;;
51384;SDS011;37478;55.682;37.462;2022-08-01T12:42:16;4.97;;;3.03;;
51384;SDS011;37478;55.682;37.462;2022-08-01T12:44:42;3.53;;;2.95;;
51384;SDS011;37478;55.682;37.462;2022-08-01T12:47:08;8.93;;;3.10;;
51384;SDS011;37478;55.682;37.462;2022-08-01T12:49:37;5.05;;;3.22;;
51384;SDS011;37478;55.682;37.462;2022-08-01T12:52:03;5.93;;;3.42;;
51384;SDS011;37478;55.682;37.462;2022-08-01T12:54:28;7.13;;;3.28;;
51384;SDS011;37478;55.682;37.462;2022-08-01T12:56:54;6.15;;;3.58;;
51384;SDS011;37478;55.682;37.462;2022-08-01T12:59:23;4.43;;;3.13;;
51384;SDS011;37478;55.682;37.462;2022-08-01T13:01:50;6.25;;;3.05;;
51384;SDS011;37478;55.682;37.462;2022-08-01T13:04:16;6.85;;;3.15;;
51384;SDS011;37478;55.682;37.462;2022-08-01T13:06:41;8.77;;;3.58;;
51384;SDS011;37478;55.682;37.462;2022-08-01T13:09:08;4.07;;;3.35;;
51384;SDS011;37478;55.682;37.462;2022-08-01T13:11:34;11.18;;;3.53;;
51384;SDS011;37478;55.682;37.462;2022-08-01T13:13:59;7.35;;;3.17;;
51384;SDS011;37478;55.682;37.462;2022-08-01T13:16:25;8.57;;;4.03;;
51384;SDS011;37478;55.682;37.462;2022-08-01T13:18:51;4.93;;;3.33;;
51384;SDS011;37478;55.682;37.462;2022-08-01T13:21:21;5.68;;;3.22;;
51384;SDS011;37478;55.682;37.462;2022-08-01T13:26:41;8.77;;;3.10;;
51384;SDS011;37478;55.682;37.462;2022-08-01T13:29:08;3.53;;;2.83;;
51384;SDS011;37478;55.682;37.462;2022-08-01T13:31:34;3.65;;;3.33;;
51384;SDS011;37478;55.682;37.462;2022-08-01T13:34:00;6.55;;;3.35;;
51384;SDS011;37478;55.682;37.462;2022-08-01T13:36:25;9.73;;;3.92;;
51384;SDS011;37478;55.682;37.462;2022-08-01T13:38:54;6.03;;;3.30;;
51384;SDS011;37478;55.682;37.462;2022-08-01T13:41:38;5.00;;;3.30;;
51384;SDS011;37478;55.682;37.462;2022-08-01T13:44:03;6.07;;;3.63;;
51384;SDS011;37478;55.682;37.462;2022-08-01T13:46:29;7.10;;;3.70;;
51384;SDS011;37478;55.682;37.462;2022-08-01T13:48:54;8.27;;;3.72;;
51384;SDS011;37478;55.682;37.462;2022-08-01T13:51:19;4.05;;;3.15;;
51384;SDS011;37478;55.682;37.462;2022-08-01T13:53:45;6.13;;;3.33;;
51384;SDS011;37478;55.682;37.462;2022-08-01T13:56:10;5.20;;;2.90;;
51384;SDS011;37478;55.682;37.462;2022-08-01T13:58:36;7.35;;;3.22;;
51384;SDS011;37478;55.682;37.462;2022-08-01T14:01:01;6.95;;;3.60;;
51384;SDS011;37478;55.682;37.462;2022-08-01T14:03:26;4.20;;;3.00;;
51384;SDS011;37478;55.682;37.462;2022-08-01T14:05:52;5.15;;;3.10;;
51384;SDS011;37478;55.682;37.462;2022-08-01T14:08:17;4.38;;;2.90;;
51384;SDS011;37478;55.682;37.462;2022-08-01T14:10:43;6.75;;;3.40;;
51384;SDS011;37478;55.682;37.462;2022-08-01T14:13:08;4.95;;;2.65;;
51384;SDS011;37478;55.682;37.462;2022-08-01T14:15:34;6.95;;;3.05;;
51384;SDS011;37478;55.682;37.462;2022-08-01T14:17:59;5.07;;;3.00;;
51384;SDS011;37478;55.682;37.462;2022-08-01T14:20:25;6.00;;;2.97;;
51384;SDS011;37478;55.682;37.462;2022-08-01T14:22:50;8.70;;;3.47;;
51384;SDS011;37478;55.682;37.462;2022-08-01T14:25:15;7.93;;;3.33;;
51384;SDS011;37478;55.682;37.462;2022-08-01T14:27:43;9.02;;;3.20;;
51384;SDS011;37478;55.682;37.462;2022-08-01T14:30:08;7.68;;;3.40;;
51384;SDS011;37478;55.682;37.462;2022-08-01T14:32:34;12.25;;;3.42;;
51384;SDS011;37478;55.682;37.462;2022-08-01T14:35:04;5.82;;;2.85;;
51384;SDS011;37478;55.682;37.462;2022-08-01T14:37:30;6.18;;;2.63;;
51384;SDS011;37478;55.682;37.462;2022-08-01T14:39:56;7.25;;;3.08;;
51384;SDS011;37478;55.682;37.462;2022-08-01T14:42:21;4.50;;;3.05;;
51384;SDS011;37478;55.682;37.462;2022-08-01T14:44:47;4.72;;;2.83;;
51384;SDS011;37478;55.682;37.462;2022-08-01T14:47:12;5.50;;;3.00;;
51384;SDS011;37478;55.682;37.462;2022-08-01T14:49:37;5.28;;;2.92;;
51384;SDS011;37478;55.682;37.462;2022-08-01T14:52:02;6.30;;;3.50;;
51384;SDS011;37478;55.682;37.462;2022-08-01T14:54:28;5.90;;;3.10;;
51384;SDS011;37478;55.682;37.462;2022-08-01T14:56:53;5.07;;;3.20;;
51384;SDS011;37478;55.682;37.462;2022-08-01T14:59:19;6.63;;;3.55;;
51384;SDS011;37478;55.682;37.462;2022-08-01T15:01:44;7.90;;;3.70;;
51384;SDS011;37478;55.682;37.462;2022-08-01T15:04:09;6.03;;;3.50;;
51384;SDS011;37478;55.682;37.462;2022-08-01T15:06:35;6.43;;;4.03;;
51384;SDS011;37478;55.682;37.462;2022-08-01T15:09:00;10.23;;;3.88;;
51384;SDS011;37478;55.682;37.462;2022-08-01T15:11:25;5.95;;;3.28;;
51384;SDS011;37478;55.682;37.462;2022-08-01T15:13:51;4.53;;;3.00;;
51384;SDS011;37478;55.682;37.462;2022-08-01T15:16:37;8.70;;;3.08;;
51384;SDS011;37478;55.682;37.462;2022-08-01T15:19:02;11.95;;;3.60;;
51384;SDS011;37478;55.682;37.462;2022-08-01T15:21:27;8.73;;;3.28;;